Terminal Aerodrome Forecast
Issued by NWS

Home | Current Version | Previous Version | Text Only | Print | Product List | Glossary On
Versions: 1 2 3 4 5 6 7 8 9 10 11 12 13 14 15 16 17 18 19 20 21 22 23 24 25
000
FTUS46 KSGX 201100
TAFSAN
TAF
KSAN 201129Z 2012/2118 18005KT P6SM OVC022
     FM201700 27009KT P6SM FEW020 SCT100
     FM210100 VRB04KT P6SM FEW020
     FM210400 VRB04KT P6SM BKN018
     FM211600 VRB04KT P6SM FEW020=

USA.gov is the U.S. government's official web portal to all federal, state and local government web resources and services.